createdAt,value
2019-06-10T00:00:13.477Z,5.57
2019-06-10T00:05:15.628Z,4.00
2019-06-10T00:10:21.343Z,4.10
2019-06-10T00:15:24.657Z,4.13
2019-06-10T00:20:27.560Z,5.37
2019-06-10T00:25:31.481Z,4.13
2019-06-10T00:30:35.238Z,6.00
2019-06-10T00:35:40.929Z,2.87
2019-06-10T00:40:43.989Z,5.97
2019-06-10T00:45:47.197Z,6.10
2019-06-10T00:50:51.760Z,7.90
2019-06-10T00:55:55.103Z,5.37
2019-06-10T01:00:57.612Z,4.70
2019-06-10T01:06:02.645Z,4.07
2019-06-10T01:11:12.590Z,3.10
2019-06-10T01:16:12.568Z,5.30
2019-06-10T01:21:16.430Z,5.53
2019-06-10T01:26:21.523Z,5.60
2019-06-10T01:31:25.403Z,6.30
2019-06-10T01:36:31.188Z,4.37
2019-06-10T01:41:34.182Z,4.70
2019-06-10T01:46:37.147Z,4.37
2019-06-10T01:51:41.260Z,6.30
2019-06-10T01:56:44.832Z,3.20
2019-06-10T02:02:07.527Z,4.93
2019-06-10T02:07:12.083Z,5.57
2019-06-10T02:12:19.078Z,4.43
2019-06-10T02:17:23.816Z,3.17
2019-06-10T02:22:27.037Z,4.47
2019-06-10T02:27:31.511Z,2.80
2019-06-10T02:32:37.676Z,5.93
2019-06-10T02:37:39.373Z,4.07
2019-06-10T02:42:44.960Z,8.47
2019-06-10T02:47:48.580Z,4.40
2019-06-10T02:52:53.090Z,2.97
2019-06-10T02:57:56.839Z,2.03
2019-06-10T03:03:03.360Z,2.17
2019-06-10T03:08:05.841Z,5.50
2019-06-10T03:13:09.078Z,2.63
2019-06-10T03:18:12.923Z,3.23
2019-06-10T03:23:16.481Z,2.50
2019-06-10T03:28:19.636Z,2.70
2019-06-10T03:33:27.723Z,4.77
2019-06-10T03:38:28.334Z,3.60
2019-06-10T03:43:32.887Z,5.03
2019-06-10T03:48:35.701Z,3.37
2019-06-10T03:53:39.220Z,3.67
2019-06-10T03:58:43.035Z,8.90
2019-06-10T04:03:46.850Z,2.50
2019-06-10T04:08:52.258Z,7.97
2019-06-10T04:13:55.543Z,5.97
2019-06-10T04:18:59.161Z,3.13
2019-06-10T04:24:02.229Z,5.27
2019-06-10T04:29:06.138Z,9.00
2019-06-10T04:34:09.614Z,2.87
2019-06-10T04:39:12.697Z,6.57
2019-06-10T04:44:16.072Z,3.10
2019-06-10T04:49:20.642Z,2.37
2019-06-10T04:54:26.606Z,2.73
2019-06-10T04:59:31.080Z,12.40
2019-06-10T05:04:35.891Z,5.60
2019-06-10T05:09:39.550Z,7.83
2019-06-10T05:14:43.241Z,3.70
2019-06-10T05:19:46.278Z,2.77
2019-06-10T05:24:48.993Z,2.53
2019-06-10T05:29:52.723Z,7.30
2019-06-10T05:34:56.391Z,5.70
2019-06-10T05:40:02.047Z,5.10
2019-06-10T05:45:06.878Z,3.63
2019-06-10T05:50:12.767Z,4.83
2019-06-10T05:55:16.192Z,8.63
2019-06-10T06:00:19.945Z,4.23
2019-06-10T06:05:23.896Z,5.73
2019-06-10T06:10:27.214Z,8.23
2019-06-10T06:15:34.503Z,3.80
2019-06-10T06:20:37.561Z,6.73
2019-06-10T06:25:44.307Z,14.00
2019-06-10T06:30:45.506Z,8.43
2019-06-10T06:35:48.776Z,2.40
2019-06-10T06:40:53.738Z,7.20
2019-06-10T06:45:56.809Z,6.40
2019-06-10T06:51:04.776Z,4.77
2019-06-10T06:56:05.436Z,8.83
2019-06-10T07:01:11.013Z,7.47
2019-06-10T07:06:14.615Z,5.20
2019-06-10T07:11:18.333Z,5.47
2019-06-10T07:16:23.050Z,8.00
2019-06-10T07:21:26.113Z,4.30
2019-06-10T07:26:29.342Z,10.50
2019-06-10T07:31:36.407Z,3.90
2019-06-10T07:36:40.882Z,7.67
2019-06-10T07:41:47.643Z,6.97
2019-06-10T07:46:48.924Z,10.30
2019-06-10T07:51:52.533Z,12.80
2019-06-10T07:56:56.106Z,17.37
2019-06-10T08:01:59.769Z,8.23
2019-06-10T08:07:03.341Z,9.83
2019-06-10T08:12:06.774Z,9.27
2019-06-10T08:17:09.708Z,2.30
2019-06-10T08:22:17.229Z,4.37
2019-06-10T08:27:19.169Z,4.50
2019-06-10T08:32:24.427Z,11.17
2019-06-10T08:37:28.170Z,9.10
2019-06-10T08:42:32.390Z,3.23
2019-06-10T08:47:39.209Z,7.53
2019-06-10T08:53:02.141Z,3.20
2019-06-10T08:57:50.986Z,10.70
2019-06-10T09:02:53.962Z,7.20
2019-06-10T09:07:57.396Z,10.07
2019-06-10T09:13:02.614Z,3.10
2019-06-10T09:18:05.183Z,5.93
2019-06-10T09:23:20.893Z,2.37
2019-06-10T09:28:13.358Z,4.67
2019-06-10T09:33:16.234Z,12.87
2019-06-10T09:38:22.188Z,12.73
2019-06-10T09:43:24.778Z,4.33
2019-06-10T09:48:27.908Z,12.10
2019-06-10T09:53:41.345Z,10.63
2019-06-10T09:58:36.763Z,6.40
2019-06-10T10:03:42.373Z,6.50
2019-06-10T10:08:51.445Z,6.40
2019-06-10T10:13:52.692Z,8.90
2019-06-10T10:19:00.397Z,3.23
2019-06-10T10:24:10.534Z,4.70
2019-06-10T10:29:09.913Z,6.97
2019-06-10T10:34:13.640Z,4.03
2019-06-10T10:39:16.790Z,4.20
2019-06-10T10:44:20.398Z,5.80
2019-06-10T10:49:24.017Z,6.33
2019-06-10T10:54:34.003Z,4.07
2019-06-10T10:59:33.292Z,5.37
2019-06-10T11:04:42.629Z,13.30
2019-06-10T11:09:46.638Z,5.33
2019-06-10T11:14:54.945Z,3.90
2019-06-10T11:19:57.864Z,14.20
2019-06-10T11:25:01.779Z,7.70
2019-06-10T11:30:06.054Z,6.20
2019-06-10T11:35:11.999Z,5.90
2019-06-10T11:40:14.795Z,6.23
2019-06-10T11:45:18.378Z,4.53
2019-06-10T11:50:23.351Z,8.17
2019-06-10T11:55:26.800Z,8.67
2019-06-10T12:00:33.116Z,6.43
2019-06-10T12:05:36.277Z,5.70
2019-06-10T12:10:39.252Z,4.40
2019-06-10T12:16:30.459Z,8.90
2019-06-10T12:20:49.599Z,5.03
2019-06-10T12:25:55.928Z,2.33
2019-06-10T12:31:01.475Z,6.30
2019-06-10T12:36:06.937Z,7.63
2019-06-10T12:41:13.055Z,8.13
2019-06-10T12:46:14.473Z,5.07
2019-06-10T12:51:18.102Z,4.73
2019-06-10T12:56:22.734Z,12.50
2019-06-10T13:01:26.338Z,9.60
2019-06-10T13:06:33.051Z,9.53
2019-06-10T13:11:36.661Z,11.77
2019-06-10T13:16:41.123Z,7.97
2019-06-10T13:21:45.212Z,6.10
2019-06-10T13:26:47.924Z,5.70
2019-06-10T13:31:52.866Z,11.53
2019-06-10T13:36:56.737Z,8.13
2019-06-10T13:42:03.248Z,12.57
2019-06-10T13:47:09.061Z,9.80
2019-06-10T13:52:15.990Z,9.00
2019-06-10T13:57:15.097Z,9.50
2019-06-10T14:02:18.735Z,7.23
2019-06-10T14:07:23.411Z,7.13
2019-06-10T14:12:26.719Z,13.50
2019-06-10T14:17:32.890Z,13.57
2019-06-10T14:22:36.004Z,11.13
2019-06-10T14:27:39.350Z,9.53
2019-06-10T14:32:42.709Z,9.20
2019-06-10T14:37:46.310Z,9.47
2019-06-10T14:42:48.935Z,13.57
2019-06-10T14:47:54.429Z,8.77
2019-06-10T14:52:57.988Z,11.77
2019-06-10T14:58:02.723Z,10.33
2019-06-10T15:03:09.106Z,7.30
2019-06-10T15:08:13.710Z,6.90
2019-06-10T15:13:16.358Z,7.90
2019-06-10T15:18:23.224Z,11.30
2019-06-10T15:23:24.998Z,6.50
2019-06-10T15:28:28.007Z,10.37
2019-06-10T15:33:32.666Z,7.10
2019-06-10T15:38:36.974Z,5.80
2019-06-10T15:43:42.356Z,9.80
2019-06-10T15:48:45.714Z,8.10
2019-06-10T15:53:49.515Z,12.27
2019-06-10T15:58:52.486Z,9.33
2019-06-10T16:03:55.368Z,12.33
2019-06-10T16:08:57.964Z,12.20
2019-06-10T16:14:02.878Z,20.53
2019-06-10T16:19:06.696Z,17.10
2019-06-10T16:24:09.998Z,15.07
2019-06-10T16:29:12.961Z,14.43
2019-06-10T16:34:16.783Z,27.83
2019-06-10T16:39:21.715Z,20.43
2019-06-10T16:44:28.016Z,24.30
2019-06-10T16:49:32.739Z,15.37
2019-06-10T16:54:35.989Z,19.20
2019-06-10T16:59:39.194Z,17.43
2019-06-10T17:04:43.471Z,21.17
2019-06-10T17:09:46.324Z,18.10
2019-06-10T17:14:49.651Z,17.70
2019-06-10T17:19:52.948Z,19.17
2019-06-10T17:24:56.205Z,21.93
2019-06-10T17:29:59.934Z,20.20
2019-06-10T17:35:03.404Z,21.93
2019-06-10T17:40:08.274Z,21.60
2019-06-10T17:45:12.782Z,18.43
2019-06-10T17:50:16.990Z,20.40
2019-06-10T17:55:23.307Z,10.60
2019-06-10T18:00:26.530Z,15.10
2019-06-10T18:05:31.326Z,22.13
2019-06-10T18:10:36.131Z,18.50
2019-06-10T18:15:38.905Z,17.50
2019-06-10T18:20:43.383Z,18.40
2019-06-10T18:25:48.990Z,13.87
2019-06-10T18:30:53.405Z,16.23
2019-06-10T18:35:57.200Z,14.70
2019-06-10T18:41:03.190Z,15.83
2019-06-10T18:46:07.809Z,26.73
2019-06-10T18:51:12.484Z,13.40
2019-06-10T18:56:16.270Z,14.83
2019-06-10T19:01:19.890Z,16.43
2019-06-10T19:06:23.403Z,13.20
2019-06-10T19:11:26.889Z,16.63
2019-06-10T19:16:32.624Z,27.93
2019-06-10T19:21:36.291Z,11.93
2019-06-10T19:26:44.787Z,12.67
2019-06-10T19:31:46.511Z,10.33
2019-06-10T19:36:52.190Z,8.90
2019-06-10T19:41:56.306Z,10.40
2019-06-10T19:46:59.737Z,11.97
2019-06-10T19:52:03.433Z,10.90
2019-06-10T19:57:06.746Z,11.37
2019-06-10T20:02:10.063Z,12.60
2019-06-10T20:07:13.892Z,12.70
2019-06-10T20:12:17.195Z,9.43
2019-06-10T20:17:22.594Z,13.57
2019-06-10T20:22:25.980Z,8.50
2019-06-10T20:27:29.268Z,13.97
2019-06-10T20:32:33.702Z,9.73
2019-06-10T20:37:37.668Z,13.83
2019-06-10T20:42:42.208Z,10.60
2019-06-10T20:47:48.000Z,12.70
2019-06-10T20:52:52.420Z,13.07
2019-06-10T20:58:03.545Z,7.67
2019-06-10T21:03:03.261Z,9.63
2019-06-10T21:08:06.287Z,16.33
2019-06-10T21:13:09.222Z,14.70
2019-06-10T21:18:13.309Z,10.37
2019-06-10T21:23:17.149Z,10.80
2019-06-10T21:28:22.277Z,13.67
2019-06-10T21:33:25.587Z,6.50
2019-06-10T21:38:29.088Z,10.63
2019-06-10T21:43:33.124Z,7.70
2019-06-10T21:48:36.313Z,9.70
2019-06-10T21:53:39.552Z,12.00
2019-06-10T21:58:43.897Z,8.80
2019-06-10T22:03:51.089Z,10.30
2019-06-10T22:08:54.951Z,9.50
2019-06-10T22:13:57.912Z,13.77
2019-06-10T22:19:03.080Z,10.40
2019-06-10T22:24:05.955Z,11.27
2019-06-10T22:29:12.540Z,13.80
2019-06-10T22:34:15.251Z,8.10
2019-06-10T22:39:18.544Z,13.03
2019-06-10T22:44:24.193Z,10.83
2019-06-10T22:49:27.028Z,8.73
2019-06-10T22:54:32.286Z,25.27
2019-06-10T22:59:35.248Z,13.70
2019-06-10T23:04:38.821Z,10.90
2019-06-10T23:09:42.879Z,6.20
2019-06-10T23:14:46.258Z,19.77
2019-06-10T23:19:49.570Z,10.90
2019-06-10T23:24:53.593Z,14.97
2019-06-10T23:29:57.549Z,17.00
2019-06-10T23:35:02.375Z,9.63
2019-06-10T23:40:05.440Z,10.83
2019-06-10T23:45:08.699Z,9.07
2019-06-10T23:50:12.911Z,9.93
2019-06-10T23:55:15.509Z,16.80
